sensor_id;sensor_type;location;lat;lon;timestamp;P1;durP1;ratioP1;P2;durP2;ratioP2
75760;SDS011;64373;46.136;8.830;2022-12-29T00:02:17;3.83;;;2.53;;
75760;SDS011;64373;46.136;8.830;2022-12-29T00:04:43;4.55;;;2.40;;
75760;SDS011;64373;46.136;8.830;2022-12-29T00:07:08;14.40;;;7.32;;
75760;SDS011;64373;46.136;8.830;2022-12-29T00:09:35;51.72;;;23.90;;
75760;SDS011;64373;46.136;8.830;2022-12-29T00:12:01;27.23;;;15.05;;
75760;SDS011;64373;46.136;8.830;2022-12-29T00:14:27;18.80;;;11.02;;
75760;SDS011;64373;46.136;8.830;2022-12-29T00:17:11;6.25;;;3.17;;
75760;SDS011;64373;46.136;8.830;2022-12-29T00:19:37;7.20;;;4.30;;
75760;SDS011;64373;46.136;8.830;2022-12-29T00:22:21;4.15;;;2.47;;
75760;SDS011;64373;46.136;8.830;2022-12-29T00:25:07;11.23;;;7.00;;
75760;SDS011;64373;46.136;8.830;2022-12-29T00:27:52;7.95;;;5.40;;
75760;SDS011;64373;46.136;8.830;2022-12-29T00:30:36;5.85;;;4.18;;
75760;SDS011;64373;46.136;8.830;2022-12-29T00:33:20;4.68;;;2.42;;
75760;SDS011;64373;46.136;8.830;2022-12-29T00:38:37;3.15;;;2.08;;
75760;SDS011;64373;46.136;8.830;2022-12-29T00:41:24;4.80;;;3.08;;
75760;SDS011;64373;46.136;8.830;2022-12-29T00:44:09;4.68;;;2.40;;
75760;SDS011;64373;46.136;8.830;2022-12-29T00:46:38;3.65;;;2.25;;
75760;SDS011;64373;46.136;8.830;2022-12-29T00:49:05;3.85;;;2.13;;
75760;SDS011;64373;46.136;8.830;2022-12-29T00:51:50;4.13;;;2.50;;
75760;SDS011;64373;46.136;8.830;2022-12-29T00:54:17;5.03;;;2.53;;
75760;SDS011;64373;46.136;8.830;2022-12-29T00:56:42;4.10;;;2.95;;
75760;SDS011;64373;46.136;8.830;2022-12-29T00:59:09;6.30;;;3.10;;
75760;SDS011;64373;46.136;8.830;2022-12-29T01:01:35;3.30;;;1.83;;
75760;SDS011;64373;46.136;8.830;2022-12-29T01:04:01;3.90;;;1.95;;
75760;SDS011;64373;46.136;8.830;2022-12-29T01:06:27;3.58;;;1.90;;
75760;SDS011;64373;46.136;8.830;2022-12-29T01:08:53;4.03;;;2.28;;
75760;SDS011;64373;46.136;8.830;2022-12-29T01:11:40;3.55;;;2.10;;
75760;SDS011;64373;46.136;8.830;2022-12-29T01:14:06;3.92;;;2.22;;
75760;SDS011;64373;46.136;8.830;2022-12-29T01:16:32;4.32;;;2.30;;
75760;SDS011;64373;46.136;8.830;2022-12-29T01:18:57;4.13;;;2.20;;
75760;SDS011;64373;46.136;8.830;2022-12-29T01:21:23;3.20;;;1.80;;
75760;SDS011;64373;46.136;8.830;2022-12-29T01:23:49;4.13;;;2.05;;
75760;SDS011;64373;46.136;8.830;2022-12-29T01:26:15;3.25;;;2.00;;
75760;SDS011;64373;46.136;8.830;2022-12-29T01:28:41;2.90;;;1.60;;
75760;SDS011;64373;46.136;8.830;2022-12-29T01:31:10;4.03;;;1.65;;
75760;SDS011;64373;46.136;8.830;2022-12-29T01:33:37;3.72;;;1.70;;
75760;SDS011;64373;46.136;8.830;2022-12-29T01:36:03;6.30;;;1.88;;
75760;SDS011;64373;46.136;8.830;2022-12-29T01:38:31;3.20;;;2.05;;
75760;SDS011;64373;46.136;8.830;2022-12-29T01:40:57;4.00;;;2.10;;
75760;SDS011;64373;46.136;8.830;2022-12-29T01:43:42;4.10;;;2.30;;
75760;SDS011;64373;46.136;8.830;2022-12-29T01:49:02;2.45;;;1.75;;
75760;SDS011;64373;46.136;8.830;2022-12-29T01:51:35;4.18;;;2.05;;
75760;SDS011;64373;46.136;8.830;2022-12-29T01:54:04;4.60;;;2.00;;
75760;SDS011;64373;46.136;8.830;2022-12-29T01:56:32;3.35;;;2.10;;
75760;SDS011;64373;46.136;8.830;2022-12-29T01:59:02;4.93;;;2.40;;
75760;SDS011;64373;46.136;8.830;2022-12-29T02:01:30;4.82;;;2.28;;
75760;SDS011;64373;46.136;8.830;2022-12-29T02:03:56;3.15;;;1.73;;
75760;SDS011;64373;46.136;8.830;2022-12-29T02:06:45;5.50;;;2.97;;
75760;SDS011;64373;46.136;8.830;2022-12-29T02:09:17;3.00;;;1.98;;
75760;SDS011;64373;46.136;8.830;2022-12-29T02:11:42;3.80;;;2.28;;
75760;SDS011;64373;46.136;8.830;2022-12-29T02:14:11;4.28;;;2.35;;
75760;SDS011;64373;46.136;8.830;2022-12-29T02:25:31;6.22;;;2.97;;
75760;SDS011;64373;46.136;8.830;2022-12-29T02:28:25;4.97;;;3.10;;
75760;SDS011;64373;46.136;8.830;2022-12-29T02:31:01;5.50;;;3.25;;
75760;SDS011;64373;46.136;8.830;2022-12-29T02:39:20;4.43;;;2.40;;
75760;SDS011;64373;46.136;8.830;2022-12-29T02:50:18;3.17;;;2.15;;
75760;SDS011;64373;46.136;8.830;2022-12-29T02:52:57;2.67;;;2.28;;
75760;SDS011;64373;46.136;8.830;2022-12-29T02:55:24;3.83;;;2.20;;
75760;SDS011;64373;46.136;8.830;2022-12-29T02:58:06;4.38;;;2.45;;
75760;SDS011;64373;46.136;8.830;2022-12-29T03:01:08;3.05;;;1.90;;
75760;SDS011;64373;46.136;8.830;2022-12-29T03:07:07;2.60;;;1.60;;
75760;SDS011;64373;46.136;8.830;2022-12-29T03:12:56;2.50;;;1.60;;
75760;SDS011;64373;46.136;8.830;2022-12-29T03:18:56;3.38;;;1.70;;
75760;SDS011;64373;46.136;8.830;2022-12-29T03:21:37;2.97;;;1.67;;
75760;SDS011;64373;46.136;8.830;2022-12-29T03:24:27;3.08;;;1.60;;
75760;SDS011;64373;46.136;8.830;2022-12-29T03:26:56;3.95;;;1.75;;
75760;SDS011;64373;46.136;8.830;2022-12-29T03:29:24;3.03;;;1.73;;
75760;SDS011;64373;46.136;8.830;2022-12-29T03:31:50;3.05;;;1.60;;
75760;SDS011;64373;46.136;8.830;2022-12-29T03:34:17;2.80;;;1.80;;
75760;SDS011;64373;46.136;8.830;2022-12-29T03:37:18;2.90;;;1.83;;
75760;SDS011;64373;46.136;8.830;2022-12-29T03:39:36;2.97;;;1.80;;
75760;SDS011;64373;46.136;8.830;2022-12-29T03:42:03;3.92;;;2.00;;
75760;SDS011;64373;46.136;8.830;2022-12-29T03:44:38;2.55;;;1.80;;
75760;SDS011;64373;46.136;8.830;2022-12-29T03:47:06;3.20;;;1.75;;
75760;SDS011;64373;46.136;8.830;2022-12-29T03:49:32;3.33;;;1.70;;
75760;SDS011;64373;46.136;8.830;2022-12-29T03:51:58;2.58;;;1.60;;
75760;SDS011;64373;46.136;8.830;2022-12-29T03:54:23;4.32;;;2.53;;
75760;SDS011;64373;46.136;8.830;2022-12-29T03:56:49;3.50;;;2.13;;
75760;SDS011;64373;46.136;8.830;2022-12-29T03:59:15;4.28;;;2.60;;
75760;SDS011;64373;46.136;8.830;2022-12-29T04:01:40;3.78;;;2.20;;
75760;SDS011;64373;46.136;8.830;2022-12-29T04:04:06;4.53;;;1.80;;
75760;SDS011;64373;46.136;8.830;2022-12-29T04:06:31;2.75;;;1.83;;
75760;SDS011;64373;46.136;8.830;2022-12-29T04:08:57;2.58;;;1.60;;
75760;SDS011;64373;46.136;8.830;2022-12-29T04:11:22;2.25;;;1.35;;
75760;SDS011;64373;46.136;8.830;2022-12-29T04:13:48;2.67;;;1.58;;
75760;SDS011;64373;46.136;8.830;2022-12-29T04:16:14;3.08;;;2.00;;
75760;SDS011;64373;46.136;8.830;2022-12-29T04:18:40;3.30;;;1.73;;
75760;SDS011;64373;46.136;8.830;2022-12-29T04:21:05;2.80;;;1.67;;
75760;SDS011;64373;46.136;8.830;2022-12-29T04:23:32;3.33;;;1.70;;
75760;SDS011;64373;46.136;8.830;2022-12-29T04:26:00;2.22;;;1.52;;
75760;SDS011;64373;46.136;8.830;2022-12-29T04:28:26;3.78;;;1.70;;
75760;SDS011;64373;46.136;8.830;2022-12-29T04:30:52;2.78;;;1.65;;
75760;SDS011;64373;46.136;8.830;2022-12-29T04:33:18;2.72;;;1.75;;
75760;SDS011;64373;46.136;8.830;2022-12-29T04:35:43;2.72;;;1.60;;
75760;SDS011;64373;46.136;8.830;2022-12-29T04:38:09;2.10;;;1.40;;
75760;SDS011;64373;46.136;8.830;2022-12-29T04:40:37;2.47;;;1.75;;
75760;SDS011;64373;46.136;8.830;2022-12-29T04:43:03;2.35;;;1.50;;
75760;SDS011;64373;46.136;8.830;2022-12-29T04:45:28;3.40;;;1.42;;
75760;SDS011;64373;46.136;8.830;2022-12-29T04:47:54;3.13;;;1.73;;
75760;SDS011;64373;46.136;8.830;2022-12-29T04:50:19;2.20;;;1.55;;
75760;SDS011;64373;46.136;8.830;2022-12-29T04:52:45;1.88;;;1.27;;
75760;SDS011;64373;46.136;8.830;2022-12-29T04:55:10;2.40;;;1.40;;
75760;SDS011;64373;46.136;8.830;2022-12-29T04:57:36;2.63;;;1.50;;
75760;SDS011;64373;46.136;8.830;2022-12-29T05:00:02;2.55;;;1.30;;
75760;SDS011;64373;46.136;8.830;2022-12-29T05:02:29;2.40;;;1.50;;
75760;SDS011;64373;46.136;8.830;2022-12-29T05:04:54;1.88;;;1.40;;
75760;SDS011;64373;46.136;8.830;2022-12-29T05:07:20;2.80;;;1.73;;
75760;SDS011;64373;46.136;8.830;2022-12-29T05:09:45;2.00;;;1.63;;
75760;SDS011;64373;46.136;8.830;2022-12-29T05:12:11;3.72;;;2.22;;
75760;SDS011;64373;46.136;8.830;2022-12-29T05:14:36;2.25;;;1.80;;
75760;SDS011;64373;46.136;8.830;2022-12-29T05:17:02;2.38;;;1.42;;
75760;SDS011;64373;46.136;8.830;2022-12-29T05:19:27;1.52;;;1.15;;
75760;SDS011;64373;46.136;8.830;2022-12-29T05:21:53;2.38;;;1.50;;
75760;SDS011;64373;46.136;8.830;2022-12-29T05:24:19;3.42;;;2.33;;
75760;SDS011;64373;46.136;8.830;2022-12-29T05:26:45;2.45;;;1.52;;
75760;SDS011;64373;46.136;8.830;2022-12-29T05:29:10;3.47;;;2.20;;
75760;SDS011;64373;46.136;8.830;2022-12-29T05:31:36;3.75;;;2.03;;
75760;SDS011;64373;46.136;8.830;2022-12-29T05:34:02;4.18;;;2.20;;
75760;SDS011;64373;46.136;8.830;2022-12-29T05:36:27;3.13;;;1.50;;
75760;SDS011;64373;46.136;8.830;2022-12-29T05:38:53;2.92;;;1.52;;
75760;SDS011;64373;46.136;8.830;2022-12-29T05:41:18;3.00;;;1.77;;
75760;SDS011;64373;46.136;8.830;2022-12-29T05:43:44;3.83;;;1.90;;
75760;SDS011;64373;46.136;8.830;2022-12-29T05:46:10;2.67;;;1.90;;
75760;SDS011;64373;46.136;8.830;2022-12-29T05:48:35;2.83;;;1.73;;
75760;SDS011;64373;46.136;8.830;2022-12-29T05:51:01;4.50;;;1.40;;
75760;SDS011;64373;46.136;8.830;2022-12-29T05:53:26;2.60;;;1.42;;
75760;SDS011;64373;46.136;8.830;2022-12-29T05:55:52;1.67;;;0.95;;
75760;SDS011;64373;46.136;8.830;2022-12-29T05:58:17;2.45;;;1.13;;
75760;SDS011;64373;46.136;8.830;2022-12-29T06:00:43;2.83;;;1.45;;
75760;SDS011;64373;46.136;8.830;2022-12-29T06:03:08;2.13;;;1.42;;
75760;SDS011;64373;46.136;8.830;2022-12-29T06:05:34;2.05;;;1.30;;
75760;SDS011;64373;46.136;8.830;2022-12-29T06:08:00;2.15;;;1.20;;
75760;SDS011;64373;46.136;8.830;2022-12-29T06:10:25;3.58;;;1.60;;
75760;SDS011;64373;46.136;8.830;2022-12-29T06:12:51;2.97;;;1.50;;
75760;SDS011;64373;46.136;8.830;2022-12-29T06:15:16;1.27;;;1.15;;
75760;SDS011;64373;46.136;8.830;2022-12-29T06:17:42;2.85;;;1.70;;
75760;SDS011;64373;46.136;8.830;2022-12-29T06:20:08;2.88;;;1.70;;
75760;SDS011;64373;46.136;8.830;2022-12-29T06:22:35;2.78;;;1.60;;
75760;SDS011;64373;46.136;8.830;2022-12-29T06:25:01;2.33;;;1.35;;
75760;SDS011;64373;46.136;8.830;2022-12-29T06:27:26;2.10;;;1.23;;
75760;SDS011;64373;46.136;8.830;2022-12-29T06:29:52;1.83;;;1.15;;
75760;SDS011;64373;46.136;8.830;2022-12-29T06:32:18;2.15;;;1.38;;
75760;SDS011;64373;46.136;8.830;2022-12-29T06:34:43;3.03;;;1.60;;
75760;SDS011;64373;46.136;8.830;2022-12-29T06:37:11;2.45;;;1.48;;
75760;SDS011;64373;46.136;8.830;2022-12-29T06:39:36;2.47;;;1.58;;
75760;SDS011;64373;46.136;8.830;2022-12-29T06:42:02;1.88;;;1.50;;
75760;SDS011;64373;46.136;8.830;2022-12-29T06:44:28;1.77;;;1.30;;
75760;SDS011;64373;46.136;8.830;2022-12-29T06:46:53;3.63;;;1.33;;
75760;SDS011;64373;46.136;8.830;2022-12-29T06:49:19;6.05;;;1.95;;
75760;SDS011;64373;46.136;8.830;2022-12-29T06:51:45;2.03;;;1.40;;
75760;SDS011;64373;46.136;8.830;2022-12-29T06:54:11;2.58;;;1.33;;
75760;SDS011;64373;46.136;8.830;2022-12-29T06:56:37;2.63;;;1.60;;
75760;SDS011;64373;46.136;8.830;2022-12-29T06:59:02;2.15;;;1.60;;
75760;SDS011;64373;46.136;8.830;2022-12-29T07:01:28;2.38;;;1.50;;
75760;SDS011;64373;46.136;8.830;2022-12-29T07:03:54;2.40;;;1.42;;
75760;SDS011;64373;46.136;8.830;2022-12-29T07:06:20;2.47;;;1.67;;
75760;SDS011;64373;46.136;8.830;2022-12-29T07:08:45;2.65;;;1.48;;
75760;SDS011;64373;46.136;8.830;2022-12-29T07:11:11;2.42;;;1.13;;
75760;SDS011;64373;46.136;8.830;2022-12-29T07:13:36;3.17;;;1.50;;
75760;SDS011;64373;46.136;8.830;2022-12-29T07:16:08;2.85;;;1.42;;
75760;SDS011;64373;46.136;8.830;2022-12-29T07:18:34;2.63;;;1.30;;
75760;SDS011;64373;46.136;8.830;2022-12-29T07:21:00;1.90;;;1.27;;
75760;SDS011;64373;46.136;8.830;2022-12-29T07:23:26;2.92;;;1.70;;
75760;SDS011;64373;46.136;8.830;2022-12-29T07:26:05;2.72;;;1.50;;
75760;SDS011;64373;46.136;8.830;2022-12-29T07:28:32;2.70;;;1.45;;
75760;SDS011;64373;46.136;8.830;2022-12-29T07:30:59;2.13;;;1.35;;
75760;SDS011;64373;46.136;8.830;2022-12-29T07:33:24;2.22;;;1.60;;
75760;SDS011;64373;46.136;8.830;2022-12-29T07:35:50;2.58;;;1.73;;
75760;SDS011;64373;46.136;8.830;2022-12-29T07:38:15;2.53;;;1.58;;
75760;SDS011;64373;46.136;8.830;2022-12-29T07:40:42;3.00;;;1.58;;
75760;SDS011;64373;46.136;8.830;2022-12-29T07:43:08;2.80;;;1.75;;
75760;SDS011;64373;46.136;8.830;2022-12-29T07:45:33;3.42;;;1.73;;
75760;SDS011;64373;46.136;8.830;2022-12-29T07:47:59;2.28;;;1.58;;
75760;SDS011;64373;46.136;8.830;2022-12-29T07:50:24;2.50;;;1.77;;
75760;SDS011;64373;46.136;8.830;2022-12-29T07:52:50;1.67;;;1.20;;
75760;SDS011;64373;46.136;8.830;2022-12-29T07:55:15;3.00;;;1.73;;
75760;SDS011;64373;46.136;8.830;2022-12-29T07:57:42;2.85;;;1.80;;
75760;SDS011;64373;46.136;8.830;2022-12-29T08:00:08;3.05;;;2.00;;
75760;SDS011;64373;46.136;8.830;2022-12-29T08:02:34;3.83;;;2.35;;
75760;SDS011;64373;46.136;8.830;2022-12-29T08:05:00;3.28;;;2.20;;
75760;SDS011;64373;46.136;8.830;2022-12-29T08:07:26;4.00;;;2.38;;
75760;SDS011;64373;46.136;8.830;2022-12-29T08:09:52;3.10;;;2.08;;
75760;SDS011;64373;46.136;8.830;2022-12-29T08:12:17;3.88;;;2.35;;
75760;SDS011;64373;46.136;8.830;2022-12-29T08:14:43;3.60;;;2.20;;
75760;SDS011;64373;46.136;8.830;2022-12-29T08:17:08;3.33;;;2.03;;
75760;SDS011;64373;46.136;8.830;2022-12-29T08:19:35;3.30;;;1.70;;
75760;SDS011;64373;46.136;8.830;2022-12-29T08:22:00;8.57;;;4.20;;
75760;SDS011;64373;46.136;8.830;2022-12-29T08:24:26;7.07;;;3.70;;
75760;SDS011;64373;46.136;8.830;2022-12-29T08:26:52;6.75;;;3.53;;
75760;SDS011;64373;46.136;8.830;2022-12-29T08:29:17;7.13;;;3.20;;
75760;SDS011;64373;46.136;8.830;2022-12-29T08:31:43;4.75;;;2.80;;
75760;SDS011;64373;46.136;8.830;2022-12-29T08:34:08;5.47;;;3.10;;
75760;SDS011;64373;46.136;8.830;2022-12-29T08:36:34;5.25;;;3.15;;
75760;SDS011;64373;46.136;8.830;2022-12-29T08:39:00;6.45;;;3.65;;
75760;SDS011;64373;46.136;8.830;2022-12-29T08:41:25;5.10;;;3.60;;
75760;SDS011;64373;46.136;8.830;2022-12-29T08:43:51;4.38;;;2.83;;
75760;SDS011;64373;46.136;8.830;2022-12-29T08:46:16;6.13;;;3.22;;
75760;SDS011;64373;46.136;8.830;2022-12-29T08:48:42;5.47;;;3.67;;
75760;SDS011;64373;46.136;8.830;2022-12-29T08:51:08;4.65;;;3.10;;
75760;SDS011;64373;46.136;8.830;2022-12-29T08:53:34;4.50;;;3.33;;
75760;SDS011;64373;46.136;8.830;2022-12-29T08:56:00;4.30;;;3.13;;
75760;SDS011;64373;46.136;8.830;2022-12-29T08:58:26;7.88;;;3.38;;
75760;SDS011;64373;46.136;8.830;2022-12-29T09:00:55;6.18;;;3.65;;
75760;SDS011;64373;46.136;8.830;2022-12-29T09:03:21;5.10;;;3.33;;
75760;SDS011;64373;46.136;8.830;2022-12-29T09:05:48;5.07;;;3.20;;
75760;SDS011;64373;46.136;8.830;2022-12-29T09:08:14;5.38;;;3.30;;
75760;SDS011;64373;46.136;8.830;2022-12-29T09:10:40;5.72;;;3.33;;
75760;SDS011;64373;46.136;8.830;2022-12-29T09:13:06;8.63;;;3.58;;
75760;SDS011;64373;46.136;8.830;2022-12-29T09:15:31;8.52;;;4.43;;
75760;SDS011;64373;46.136;8.830;2022-12-29T09:17:57;11.45;;;4.22;;
75760;SDS011;64373;46.136;8.830;2022-12-29T09:20:22;9.35;;;4.07;;
75760;SDS011;64373;46.136;8.830;2022-12-29T09:22:48;7.93;;;4.32;;
75760;SDS011;64373;46.136;8.830;2022-12-29T09:25:14;7.85;;;4.70;;
75760;SDS011;64373;46.136;8.830;2022-12-29T09:27:40;7.55;;;4.47;;
75760;SDS011;64373;46.136;8.830;2022-12-29T09:30:07;7.35;;;4.25;;
75760;SDS011;64373;46.136;8.830;2022-12-29T09:32:34;6.90;;;4.75;;
75760;SDS011;64373;46.136;8.830;2022-12-29T09:35:00;5.95;;;4.22;;
75760;SDS011;64373;46.136;8.830;2022-12-29T09:37:26;7.60;;;4.20;;
75760;SDS011;64373;46.136;8.830;2022-12-29T09:39:52;6.63;;;4.50;;
75760;SDS011;64373;46.136;8.830;2022-12-29T09:47:38;5.07;;;4.15;;
75760;SDS011;64373;46.136;8.830;2022-12-29T09:50:53;7.63;;;4.25;;
75760;SDS011;64373;46.136;8.830;2022-12-29T09:53:04;6.38;;;3.40;;
75760;SDS011;64373;46.136;8.830;2022-12-29T09:55:38;5.30;;;3.65;;
75760;SDS011;64373;46.136;8.830;2022-12-29T09:58:12;5.90;;;3.13;;
75760;SDS011;64373;46.136;8.830;2022-12-29T10:00:48;5.38;;;3.92;;
75760;SDS011;64373;46.136;8.830;2022-12-29T10:03:18;4.63;;;3.22;;
75760;SDS011;64373;46.136;8.830;2022-12-29T10:14:04;7.40;;;3.55;;
75760;SDS011;64373;46.136;8.830;2022-12-29T10:19:21;5.30;;;3.33;;
75760;SDS011;64373;46.136;8.830;2022-12-29T10:24:43;6.38;;;3.85;;
75760;SDS011;64373;46.136;8.830;2022-12-29T10:27:10;5.85;;;3.60;;
75760;SDS011;64373;46.136;8.830;2022-12-29T10:29:39;5.00;;;3.47;;
75760;SDS011;64373;46.136;8.830;2022-12-29T10:32:15;5.78;;;3.28;;
75760;SDS011;64373;46.136;8.830;2022-12-29T10:34:51;5.38;;;3.53;;
75760;SDS011;64373;46.136;8.830;2022-12-29T10:43:29;8.35;;;3.30;;
75760;SDS011;64373;46.136;8.830;2022-12-29T10:45:56;6.43;;;3.78;;
75760;SDS011;64373;46.136;8.830;2022-12-29T10:48:30;5.68;;;3.50;;
75760;SDS011;64373;46.136;8.830;2022-12-29T10:50:58;7.05;;;3.80;;
75760;SDS011;64373;46.136;8.830;2022-12-29T10:56:04;5.55;;;3.72;;
75760;SDS011;64373;46.136;8.830;2022-12-29T10:58:39;4.93;;;3.28;;
75760;SDS011;64373;46.136;8.830;2022-12-29T11:01:07;7.00;;;4.05;;
75760;SDS011;64373;46.136;8.830;2022-12-29T11:03:39;6.18;;;3.10;;
75760;SDS011;64373;46.136;8.830;2022-12-29T11:06:12;5.95;;;3.63;;
75760;SDS011;64373;46.136;8.830;2022-12-29T11:08:46;7.75;;;3.60;;
75760;SDS011;64373;46.136;8.830;2022-12-29T11:11:26;5.45;;;3.90;;
75760;SDS011;64373;46.136;8.830;2022-12-29T11:16:45;5.80;;;3.53;;
75760;SDS011;64373;46.136;8.830;2022-12-29T11:19:29;6.55;;;3.90;;
75760;SDS011;64373;46.136;8.830;2022-12-29T11:22:11;8.82;;;3.58;;
75760;SDS011;64373;46.136;8.830;2022-12-29T11:24:47;8.43;;;3.58;;
75760;SDS011;64373;46.136;8.830;2022-12-29T11:27:17;5.18;;;2.90;;
75760;SDS011;64373;46.136;8.830;2022-12-29T11:29:46;6.60;;;3.00;;
75760;SDS011;64373;46.136;8.830;2022-12-29T11:34:37;5.93;;;3.00;;
75760;SDS011;64373;46.136;8.830;2022-12-29T11:37:12;4.93;;;3.50;;
75760;SDS011;64373;46.136;8.830;2022-12-29T11:40:02;5.72;;;4.07;;
75760;SDS011;64373;46.136;8.830;2022-12-29T11:42:37;6.65;;;3.50;;
75760;SDS011;64373;46.136;8.830;2022-12-29T11:45:06;7.93;;;3.47;;
75760;SDS011;64373;46.136;8.830;2022-12-29T11:47:41;6.78;;;3.67;;
75760;SDS011;64373;46.136;8.830;2022-12-29T11:50:15;5.68;;;3.90;;
75760;SDS011;64373;46.136;8.830;2022-12-29T11:52:48;7.95;;;3.85;;
75760;SDS011;64373;46.136;8.830;2022-12-29T11:55:20;6.07;;;3.80;;
75760;SDS011;64373;46.136;8.830;2022-12-29T11:57:47;6.30;;;3.95;;
75760;SDS011;64373;46.136;8.830;2022-12-29T12:00:16;6.78;;;3.97;;
75760;SDS011;64373;46.136;8.830;2022-12-29T12:05:58;6.55;;;4.50;;
75760;SDS011;64373;46.136;8.830;2022-12-29T12:08:28;7.07;;;4.03;;
75760;SDS011;64373;46.136;8.830;2022-12-29T12:11:12;6.05;;;4.30;;
75760;SDS011;64373;46.136;8.830;2022-12-29T12:16:27;6.72;;;4.88;;
75760;SDS011;64373;46.136;8.830;2022-12-29T12:24:56;9.13;;;5.13;;
75760;SDS011;64373;46.136;8.830;2022-12-29T12:30:09;9.52;;;6.03;;
75760;SDS011;64373;46.136;8.830;2022-12-29T12:35:32;8.60;;;4.72;;
75760;SDS011;64373;46.136;8.830;2022-12-29T12:43:46;9.70;;;4.65;;
75760;SDS011;64373;46.136;8.830;2022-12-29T12:49:24;10.38;;;3.85;;
75760;SDS011;64373;46.136;8.830;2022-12-29T12:52:09;5.63;;;3.53;;
75760;SDS011;64373;46.136;8.830;2022-12-29T12:54:55;7.25;;;2.90;;
75760;SDS011;64373;46.136;8.830;2022-12-29T13:00:41;4.10;;;2.13;;
75760;SDS011;64373;46.136;8.830;2022-12-29T13:03:53;7.53;;;5.07;;
75760;SDS011;64373;46.136;8.830;2022-12-29T13:20:12;5.55;;;2.67;;
75760;SDS011;64373;46.136;8.830;2022-12-29T13:26:33;6.50;;;3.60;;
75760;SDS011;64373;46.136;8.830;2022-12-29T13:36:55;10.73;;;5.93;;
75760;SDS011;64373;46.136;8.830;2022-12-29T13:42:13;7.20;;;4.32;;
75760;SDS011;64373;46.136;8.830;2022-12-29T13:47:29;5.75;;;4.20;;
75760;SDS011;64373;46.136;8.830;2022-12-29T13:49:58;7.70;;;4.35;;
75760;SDS011;64373;46.136;8.830;2022-12-29T13:55:18;37.28;;;18.65;;
75760;SDS011;64373;46.136;8.830;2022-12-29T13:57:51;24.92;;;14.93;;
75760;SDS011;64373;46.136;8.830;2022-12-29T14:00:22;18.65;;;10.32;;
75760;SDS011;64373;46.136;8.830;2022-12-29T14:06:05;10.02;;;5.53;;
75760;SDS011;64373;46.136;8.830;2022-12-29T14:08:42;10.57;;;6.10;;
75760;SDS011;64373;46.136;8.830;2022-12-29T14:11:09;5.40;;;3.60;;
75760;SDS011;64373;46.136;8.830;2022-12-29T14:13:39;5.28;;;3.60;;
75760;SDS011;64373;46.136;8.830;2022-12-29T14:16:07;5.60;;;3.38;;
75760;SDS011;64373;46.136;8.830;2022-12-29T14:18:55;4.72;;;2.90;;
75760;SDS011;64373;46.136;8.830;2022-12-29T14:21:29;5.53;;;3.25;;
75760;SDS011;64373;46.136;8.830;2022-12-29T14:24:00;6.22;;;3.25;;
75760;SDS011;64373;46.136;8.830;2022-12-29T14:26:57;6.50;;;4.10;;
75760;SDS011;64373;46.136;8.830;2022-12-29T14:31:49;6.63;;;4.43;;
75760;SDS011;64373;46.136;8.830;2022-12-29T14:34:16;7.63;;;5.35;;
75760;SDS011;64373;46.136;8.830;2022-12-29T14:36:54;7.57;;;5.50;;
75760;SDS011;64373;46.136;8.830;2022-12-29T14:44:47;10.27;;;5.13;;
75760;SDS011;64373;46.136;8.830;2022-12-29T14:50:06;6.18;;;4.43;;
75760;SDS011;64373;46.136;8.830;2022-12-29T14:52:49;6.18;;;4.15;;
75760;SDS011;64373;46.136;8.830;2022-12-29T14:55:30;6.55;;;3.58;;
75760;SDS011;64373;46.136;8.830;2022-12-29T14:58:13;4.85;;;2.72;;
75760;SDS011;64373;46.136;8.830;2022-12-29T15:00:41;4.97;;;2.97;;
75760;SDS011;64373;46.136;8.830;2022-12-29T15:03:13;4.05;;;2.50;;
75760;SDS011;64373;46.136;8.830;2022-12-29T15:05:51;2.60;;;1.67;;
75760;SDS011;64373;46.136;8.830;2022-12-29T15:08:21;3.17;;;1.52;;
75760;SDS011;64373;46.136;8.830;2022-12-29T15:11:11;1.90;;;1.27;;
75760;SDS011;64373;46.136;8.830;2022-12-29T15:13:37;6.45;;;3.03;;
75760;SDS011;64373;46.136;8.830;2022-12-29T15:16:05;3.90;;;2.40;;
75760;SDS011;64373;46.136;8.830;2022-12-29T15:18:55;5.10;;;3.17;;
75760;SDS011;64373;46.136;8.830;2022-12-29T15:21:25;4.78;;;3.22;;
75760;SDS011;64373;46.136;8.830;2022-12-29T15:23:55;3.92;;;2.60;;
75760;SDS011;64373;46.136;8.830;2022-12-29T15:26:21;5.13;;;2.47;;
75760;SDS011;64373;46.136;8.830;2022-12-29T15:28:49;3.30;;;2.40;;
75760;SDS011;64373;46.136;8.830;2022-12-29T15:31:17;5.90;;;3.40;;
75760;SDS011;64373;46.136;8.830;2022-12-29T15:33:47;5.82;;;3.00;;
75760;SDS011;64373;46.136;8.830;2022-12-29T15:36:18;3.42;;;2.50;;
75760;SDS011;64373;46.136;8.830;2022-12-29T15:38:44;4.00;;;2.72;;
75760;SDS011;64373;46.136;8.830;2022-12-29T15:41:53;4.00;;;2.80;;
75760;SDS011;64373;46.136;8.830;2022-12-29T15:44:29;4.05;;;2.38;;
75760;SDS011;64373;46.136;8.830;2022-12-29T15:47:04;4.10;;;2.72;;
75760;SDS011;64373;46.136;8.830;2022-12-29T15:49:30;4.38;;;2.70;;
75760;SDS011;64373;46.136;8.830;2022-12-29T15:51:57;3.83;;;2.58;;
75760;SDS011;64373;46.136;8.830;2022-12-29T15:54:30;5.35;;;2.80;;
75760;SDS011;64373;46.136;8.830;2022-12-29T15:56:57;3.67;;;2.38;;
75760;SDS011;64373;46.136;8.830;2022-12-29T15:59:23;4.25;;;2.47;;
75760;SDS011;64373;46.136;8.830;2022-12-29T16:01:57;2.97;;;2.00;;
75760;SDS011;64373;46.136;8.830;2022-12-29T16:04:25;3.88;;;2.03;;
75760;SDS011;64373;46.136;8.830;2022-12-29T16:09:34;3.17;;;2.10;;
75760;SDS011;64373;46.136;8.830;2022-12-29T16:12:06;4.47;;;2.10;;
75760;SDS011;64373;46.136;8.830;2022-12-29T16:14:44;3.95;;;2.60;;
75760;SDS011;64373;46.136;8.830;2022-12-29T16:17:15;10.40;;;4.95;;
75760;SDS011;64373;46.136;8.830;2022-12-29T16:19:49;5.57;;;3.38;;
75760;SDS011;64373;46.136;8.830;2022-12-29T16:22:27;3.95;;;2.78;;
75760;SDS011;64373;46.136;8.830;2022-12-29T16:24:59;3.20;;;1.73;;
75760;SDS011;64373;46.136;8.830;2022-12-29T16:27:35;3.00;;;2.20;;
75760;SDS011;64373;46.136;8.830;2022-12-29T16:30:07;3.17;;;1.98;;
75760;SDS011;64373;46.136;8.830;2022-12-29T16:32:47;3.55;;;1.85;;
75760;SDS011;64373;46.136;8.830;2022-12-29T16:37:42;2.53;;;1.65;;
75760;SDS011;64373;46.136;8.830;2022-12-29T16:40:22;2.45;;;1.77;;
75760;SDS011;64373;46.136;8.830;2022-12-29T16:42:48;3.08;;;1.80;;
75760;SDS011;64373;46.136;8.830;2022-12-29T16:47:43;3.15;;;2.13;;
75760;SDS011;64373;46.136;8.830;2022-12-29T16:50:36;3.55;;;2.10;;
75760;SDS011;64373;46.136;8.830;2022-12-29T16:53:17;5.35;;;2.10;;
75760;SDS011;64373;46.136;8.830;2022-12-29T16:56:16;2.75;;;1.65;;
75760;SDS011;64373;46.136;8.830;2022-12-29T16:58:46;5.15;;;3.38;;
75760;SDS011;64373;46.136;8.830;2022-12-29T17:01:23;4.95;;;2.70;;
75760;SDS011;64373;46.136;8.830;2022-12-29T17:03:54;4.00;;;2.83;;
75760;SDS011;64373;46.136;8.830;2022-12-29T17:06:22;4.43;;;2.13;;
75760;SDS011;64373;46.136;8.830;2022-12-29T17:08:49;4.93;;;3.50;;
75760;SDS011;64373;46.136;8.830;2022-12-29T17:11:20;5.00;;;3.40;;
75760;SDS011;64373;46.136;8.830;2022-12-29T17:14:05;22.40;;;16.70;;
75760;SDS011;64373;46.136;8.830;2022-12-29T17:16:41;25.40;;;19.50;;
75760;SDS011;64373;46.136;8.830;2022-12-29T17:19:07;8.57;;;5.55;;
75760;SDS011;64373;46.136;8.830;2022-12-29T17:21:56;3.67;;;2.50;;
75760;SDS011;64373;46.136;8.830;2022-12-29T17:24:22;3.65;;;2.35;;
75760;SDS011;64373;46.136;8.830;2022-12-29T17:26:49;5.68;;;3.45;;
75760;SDS011;64373;46.136;8.830;2022-12-29T17:29:35;3.15;;;2.20;;
75760;SDS011;64373;46.136;8.830;2022-12-29T17:32:03;2.97;;;1.83;;
75760;SDS011;64373;46.136;8.830;2022-12-29T17:34:30;2.60;;;1.67;;
75760;SDS011;64373;46.136;8.830;2022-12-29T17:36:56;2.85;;;1.75;;
75760;SDS011;64373;46.136;8.830;2022-12-29T17:39:22;2.75;;;1.65;;
75760;SDS011;64373;46.136;8.830;2022-12-29T17:41:47;2.72;;;1.75;;
75760;SDS011;64373;46.136;8.830;2022-12-29T17:44:17;2.35;;;1.73;;